createdAt,value
2023-02-17T00:00:55.805Z,89.90
2023-02-17T00:03:25.642Z,90.10
2023-02-17T00:05:53.525Z,89.50
2023-02-17T00:08:21.584Z,89.30
2023-02-17T00:10:57.395Z,89.10
2023-02-17T00:13:25.454Z,89.50
2023-02-17T00:15:53.190Z,89.80
2023-02-17T00:18:21.029Z,89.30
2023-02-17T00:20:50.384Z,89.70
2023-02-17T00:23:18.428Z,89.80
2023-02-17T00:25:46.442Z,90.10
2023-02-17T00:28:14.207Z,90.60
2023-02-17T00:30:41.995Z,90.80
2023-02-17T00:33:09.797Z,91.30
2023-02-17T00:35:41.453Z,92.00
2023-02-17T00:38:10.844Z,92.00
2023-02-17T00:40:38.846Z,92.80
2023-02-17T00:43:06.795Z,93.10
2023-02-17T00:45:34.724Z,93.10
2023-02-17T00:48:02.485Z,92.90
2023-02-17T00:50:30.265Z,93.20
2023-02-17T00:52:57.968Z,93.30
2023-02-17T00:55:27.062Z,93.10
2023-02-17T00:57:54.798Z,93.10
2023-02-17T01:00:22.749Z,93.10
2023-02-17T01:02:50.553Z,93.00
2023-02-17T01:05:18.353Z,93.50
2023-02-17T01:07:46.214Z,93.00
2023-02-17T01:10:14.222Z,93.30
2023-02-17T01:12:43.244Z,93.00
2023-02-17T01:15:11.316Z,92.90
2023-02-17T01:17:39.111Z,92.70
2023-02-17T01:20:08.307Z,92.80
2023-02-17T01:22:35.990Z,92.90
2023-02-17T01:25:04.065Z,93.00
2023-02-17T01:27:32.026Z,93.00
2023-02-17T01:30:01.212Z,93.40
2023-02-17T01:32:29.058Z,93.30
2023-02-17T01:34:56.835Z,93.40
2023-02-17T01:37:24.569Z,93.70
2023-02-17T01:39:52.334Z,93.50
2023-02-17T01:42:21.049Z,93.90
2023-02-17T01:45:31.133Z,93.50
2023-02-17T01:48:02.283Z,93.40
2023-02-17T01:50:34.925Z,93.70
2023-02-17T01:53:06.077Z,93.40
2023-02-17T01:55:34.834Z,93.30
2023-02-17T01:58:05.447Z,93.50
2023-02-17T02:00:37.328Z,93.90
2023-02-17T02:03:09.409Z,94.20
2023-02-17T02:05:38.497Z,94.50
2023-02-17T02:08:06.630Z,94.70
2023-02-17T02:10:34.432Z,95.20
2023-02-17T02:13:02.239Z,95.60
2023-02-17T02:15:38.586Z,95.70
2023-02-17T02:18:37.639Z,95.90
2023-02-17T02:21:38.686Z,95.80
2023-02-17T02:24:16.424Z,95.70
2023-02-17T02:27:31.147Z,95.40
2023-02-17T02:30:20.829Z,95.60
2023-02-17T02:32:59.099Z,95.70
2023-02-17T02:35:35.216Z,95.10
2023-02-17T02:38:07.756Z,95.40
2023-02-17T02:40:41.898Z,94.90
2023-02-17T02:43:10.164Z,94.80
2023-02-17T02:45:38.009Z,95.40
2023-02-17T02:48:07.144Z,95.20
2023-02-17T02:50:58.501Z,95.30
2023-02-17T02:53:49.857Z,95.20
2023-02-17T02:56:28.469Z,95.40
2023-02-17T02:59:06.318Z,95.40
2023-02-17T03:01:42.064Z,95.50
2023-02-17T03:04:16.350Z,95.90
2023-02-17T03:06:49.091Z,96.10
2023-02-17T03:09:22.068Z,96.20
2023-02-17T03:11:50.944Z,96.20
2023-02-17T03:14:21.782Z,96.70
2023-02-17T03:16:50.805Z,96.60
2023-02-17T03:19:23.093Z,96.80
2023-02-17T03:21:53.418Z,97.00
2023-02-17T03:24:21.704Z,97.20
2023-02-17T03:26:49.465Z,97.20
2023-02-17T03:29:17.236Z,97.60
2023-02-17T03:31:45.146Z,98.00
2023-02-17T03:34:13.034Z,98.40
2023-02-17T03:36:42.157Z,99.70
2023-02-17T03:39:09.927Z,99.90
2023-02-17T03:41:37.742Z,99.90
2023-02-17T03:44:05.792Z,99.90
2023-02-17T03:46:33.744Z,99.90
2023-02-17T03:49:01.502Z,99.90
2023-02-17T03:51:29.271Z,99.90
2023-02-17T03:53:58.497Z,99.90
2023-02-17T03:56:26.255Z,99.90
2023-02-17T03:58:53.995Z,99.90
2023-02-17T04:01:21.935Z,99.90
2023-02-17T04:03:49.907Z,99.90
2023-02-17T04:06:18.042Z,99.90
2023-02-17T04:08:45.752Z,99.90
2023-02-17T04:11:14.929Z,99.90
2023-02-17T04:13:42.693Z,99.90
2023-02-17T04:16:12.055Z,99.90
2023-02-17T04:18:40.147Z,99.90
2023-02-17T04:21:08.528Z,99.90
2023-02-17T04:23:37.036Z,99.90
2023-02-17T04:26:05.630Z,99.90
2023-02-17T04:28:34.993Z,99.90
2023-02-17T04:31:02.821Z,99.90
2023-02-17T04:33:30.884Z,99.90
2023-02-17T04:36:00.264Z,99.90
2023-02-17T04:38:28.483Z,99.90
2023-02-17T04:40:56.828Z,99.90
2023-02-17T04:43:24.905Z,99.90
2023-02-17T04:45:54.001Z,99.90
2023-02-17T04:48:21.798Z,99.90
2023-02-17T04:50:49.644Z,99.90
2023-02-17T04:53:17.580Z,99.90
2023-02-17T04:55:45.672Z,99.90
2023-02-17T04:58:13.424Z,99.90
2023-02-17T05:00:41.128Z,99.90
2023-02-17T05:03:10.190Z,99.90
2023-02-17T05:05:37.885Z,99.90
2023-02-17T05:08:05.851Z,99.90
2023-02-17T05:10:33.567Z,99.90
2023-02-17T05:13:01.260Z,99.90
2023-02-17T05:15:28.968Z,99.90
2023-02-17T05:17:56.679Z,99.90
2023-02-17T05:20:25.925Z,99.90
2023-02-17T05:22:53.653Z,99.90
2023-02-17T05:25:21.387Z,99.90
2023-02-17T05:27:49.167Z,99.90
2023-02-17T05:30:17.240Z,99.90
2023-02-17T05:32:45.084Z,99.90
2023-02-17T05:35:13.521Z,99.90
2023-02-17T05:37:42.660Z,99.90
2023-02-17T05:40:11.038Z,99.90
2023-02-17T05:42:38.827Z,99.90
2023-02-17T05:45:07.082Z,99.90
2023-02-17T05:47:35.459Z,99.90
2023-02-17T05:50:03.259Z,99.90
2023-02-17T05:52:30.974Z,99.90
2023-02-17T05:55:00.032Z,99.90
2023-02-17T05:57:27.893Z,99.90
2023-02-17T05:59:55.632Z,99.90
2023-02-17T06:02:23.383Z,99.90
2023-02-17T06:04:51.203Z,99.90
2023-02-17T06:07:18.941Z,99.90
2023-02-17T06:09:47.357Z,99.90
2023-02-17T06:12:16.566Z,99.90
2023-02-17T06:14:44.243Z,99.90
2023-02-17T06:17:11.987Z,99.90
2023-02-17T06:19:39.728Z,99.90
2023-02-17T06:22:07.441Z,99.90
2023-02-17T06:24:35.213Z,99.90
2023-02-17T06:27:03.359Z,99.90
2023-02-17T06:29:32.515Z,99.90
2023-02-17T06:32:00.310Z,99.90
2023-02-17T06:34:28.432Z,99.90
2023-02-17T06:36:56.610Z,99.90
2023-02-17T06:39:24.392Z,99.90
2023-02-17T06:41:52.189Z,99.90
2023-02-17T06:44:19.978Z,99.90
2023-02-17T06:46:49.121Z,99.90
2023-02-17T06:49:16.830Z,99.90
2023-02-17T06:51:44.588Z,99.90
2023-02-17T06:54:12.372Z,99.90
2023-02-17T06:56:40.130Z,99.90
2023-02-17T06:59:07.865Z,99.90
2023-02-17T07:01:35.570Z,99.90
2023-02-17T07:04:04.940Z,99.90
2023-02-17T07:06:32.700Z,99.90
2023-02-17T07:09:01.658Z,99.90
2023-02-17T07:11:31.329Z,99.90
2023-02-17T07:13:59.185Z,99.90
2023-02-17T07:16:27.301Z,99.90
2023-02-17T07:18:55.056Z,99.90
2023-02-17T07:21:24.213Z,99.90
2023-02-17T07:23:52.085Z,99.90
2023-02-17T07:26:19.838Z,99.90
2023-02-17T07:28:47.557Z,99.90
2023-02-17T07:31:17.637Z,99.90
2023-02-17T07:33:47.982Z,99.90
2023-02-17T07:36:17.457Z,99.90
2023-02-17T07:38:46.504Z,99.90
2023-02-17T07:41:16.031Z,99.90
2023-02-17T07:43:44.196Z,99.90
2023-02-17T07:46:12.833Z,99.90
2023-02-17T07:48:40.599Z,99.90
2023-02-17T07:51:09.751Z,99.90
2023-02-17T07:53:38.446Z,99.90
2023-02-17T07:56:09.339Z,99.90
2023-02-17T07:58:38.938Z,99.90
2023-02-17T08:01:07.771Z,99.90
2023-02-17T08:03:35.775Z,99.90
2023-02-17T08:06:04.413Z,99.90
2023-02-17T08:08:50.132Z,99.90
2023-02-17T08:11:36.889Z,99.90
2023-02-17T08:14:04.738Z,99.90
2023-02-17T08:16:32.504Z,99.90
2023-02-17T08:19:00.313Z,99.90
2023-02-17T08:21:28.803Z,99.90
2023-02-17T08:23:56.790Z,99.90
2023-02-17T08:26:26.299Z,99.90
2023-02-17T08:28:54.002Z,99.90
2023-02-17T08:31:25.324Z,99.90
2023-02-17T08:33:53.361Z,99.90
2023-02-17T08:36:22.247Z,99.90
2023-02-17T08:38:51.233Z,99.90
2023-02-17T08:41:22.538Z,99.90
2023-02-17T08:43:51.829Z,99.90
2023-02-17T08:46:21.896Z,99.90
2023-02-17T08:48:50.064Z,99.90
2023-02-17T08:51:23.318Z,99.90
2023-02-17T08:53:51.559Z,99.90
2023-02-17T08:56:19.346Z,99.90
2023-02-17T08:58:47.273Z,99.90
2023-02-17T09:01:19.536Z,99.90
2023-02-17T09:03:50.935Z,99.90
2023-02-17T09:06:20.765Z,99.90
2023-02-17T09:08:50.421Z,99.90
2023-02-17T09:11:21.208Z,99.90
2023-02-17T09:13:51.081Z,99.90
2023-02-17T09:16:24.831Z,99.90
2023-02-17T09:18:55.356Z,99.90
2023-02-17T09:21:26.322Z,99.90
2023-02-17T09:23:56.141Z,99.90
2023-02-17T09:26:26.190Z,99.90
2023-02-17T09:28:55.967Z,99.90
2023-02-17T09:31:29.701Z,99.90
2023-02-17T09:34:00.053Z,99.90
2023-02-17T09:36:33.290Z,99.90
2023-02-17T09:39:03.592Z,99.90
2023-02-17T09:41:39.865Z,99.90
2023-02-17T09:44:24.782Z,99.90
2023-02-17T09:47:04.171Z,99.90
2023-02-17T09:49:40.782Z,99.90
2023-02-17T09:52:16.649Z,99.90
2023-02-17T09:54:56.455Z,99.90
2023-02-17T09:57:31.140Z,99.90
2023-02-17T10:00:03.824Z,99.90
2023-02-17T10:02:37.522Z,99.90
2023-02-17T10:05:11.617Z,99.90
2023-02-17T10:07:44.675Z,99.90
2023-02-17T10:10:17.271Z,99.90
2023-02-17T10:12:49.615Z,99.90
2023-02-17T10:15:23.520Z,99.90
2023-02-17T10:17:58.842Z,99.90
2023-02-17T10:20:32.555Z,99.90
2023-02-17T10:23:07.098Z,99.90
2023-02-17T10:25:52.153Z,99.90
2023-02-17T10:28:28.496Z,99.90
2023-02-17T10:31:04.033Z,99.90
2023-02-17T10:33:37.966Z,99.90
2023-02-17T10:36:18.269Z,99.90
2023-02-17T10:38:51.903Z,99.90
2023-02-17T10:41:24.818Z,99.90
2023-02-17T10:43:52.937Z,99.90
2023-02-17T10:46:29.469Z,99.90
2023-02-17T10:49:00.466Z,99.90
2023-02-17T10:51:30.562Z,99.90
2023-02-17T10:54:03.607Z,99.90
2023-02-17T10:56:39.126Z,99.90
2023-02-17T10:59:12.979Z,99.90
2023-02-17T11:01:41.106Z,99.90
2023-02-17T11:04:13.848Z,99.90
2023-02-17T11:06:44.665Z,99.90
2023-02-17T11:09:21.707Z,99.90
2023-02-17T11:11:54.179Z,99.90
2023-02-17T11:14:26.892Z,99.90
2023-02-17T11:16:59.164Z,99.90
2023-02-17T11:19:30.237Z,99.90
2023-02-17T11:22:00.369Z,99.90
2023-02-17T11:24:30.160Z,99.90
2023-02-17T11:26:59.889Z,99.90
2023-02-17T11:29:28.513Z,99.90
2023-02-17T11:31:58.694Z,99.90
2023-02-17T11:34:30.252Z,99.90
2023-02-17T11:37:01.426Z,99.90
2023-02-17T11:39:29.628Z,99.90
2023-02-17T11:41:57.617Z,99.90
2023-02-17T11:44:26.992Z,99.90
2023-02-17T11:47:05.652Z,99.90
2023-02-17T11:49:55.943Z,99.90
2023-02-17T11:52:44.138Z,99.90
2023-02-17T11:55:27.679Z,99.90
2023-02-17T11:58:08.087Z,99.90
2023-02-17T12:00:44.678Z,99.90
2023-02-17T12:03:57.113Z,99.90
2023-02-17T12:06:39.722Z,99.90
2023-02-17T12:09:18.181Z,99.90
2023-02-17T12:11:52.499Z,99.90
2023-02-17T12:14:50.239Z,99.90
2023-02-17T12:17:25.132Z,99.90
2023-02-17T12:19:58.727Z,99.90
2023-02-17T12:22:36.743Z,99.90
2023-02-17T12:25:16.077Z,99.90
2023-02-17T12:27:54.301Z,99.90
2023-02-17T12:30:34.327Z,99.90
2023-02-17T12:33:15.211Z,99.90
2023-02-17T12:35:52.638Z,99.90
2023-02-17T12:38:26.693Z,99.90
2023-02-17T12:40:59.574Z,99.90
2023-02-17T12:43:32.521Z,99.90
2023-02-17T12:46:04.397Z,99.90
2023-02-17T12:48:37.733Z,99.90
2023-02-17T12:51:10.150Z,99.90
2023-02-17T12:53:49.573Z,99.90
2023-02-17T12:56:50.823Z,99.90
2023-02-17T12:59:21.122Z,99.90
2023-02-17T13:02:00.625Z,99.90
2023-02-17T13:04:30.670Z,99.90
2023-02-17T13:07:09.473Z,99.90
2023-02-17T13:09:41.420Z,99.90
2023-02-17T13:12:29.952Z,99.90
2023-02-17T13:14:59.521Z,99.90
2023-02-17T13:17:29.584Z,99.90
2023-02-17T13:20:45.475Z,99.90
2023-02-17T13:23:15.359Z,99.90
2023-02-17T13:25:44.457Z,99.90
2023-02-17T13:28:36.262Z,99.90
2023-02-17T13:31:14.103Z,99.90
2023-02-17T13:33:45.420Z,99.90
2023-02-17T13:36:20.454Z,99.90
2023-02-17T13:38:59.648Z,99.90
2023-02-17T13:41:30.100Z,99.90
2023-02-17T13:43:57.964Z,99.90
2023-02-17T13:46:28.058Z,99.90
2023-02-17T13:49:04.653Z,99.90
2023-02-17T13:51:34.360Z,99.90
2023-02-17T13:54:10.385Z,99.90
2023-02-17T13:56:40.463Z,99.90
2023-02-17T13:59:10.148Z,99.90
2023-02-17T14:01:41.535Z,99.90
2023-02-17T14:04:23.463Z,99.90
2023-02-17T14:06:52.554Z,99.90
2023-02-17T14:09:26.086Z,99.90
2023-02-17T14:11:56.316Z,99.90
2023-02-17T14:14:27.075Z,99.90
2023-02-17T14:17:03.082Z,99.90
2023-02-17T14:19:31.369Z,99.90
2023-02-17T14:22:03.980Z,99.90
2023-02-17T14:24:34.146Z,99.90
2023-02-17T14:27:08.101Z,99.90
2023-02-17T14:29:43.572Z,99.90
2023-02-17T14:32:26.987Z,99.90
2023-02-17T14:34:54.814Z,99.90
2023-02-17T14:37:25.819Z,99.90
2023-02-17T14:39:53.542Z,99.90
2023-02-17T14:42:22.584Z,99.90
2023-02-17T14:44:50.356Z,99.90
2023-02-17T14:47:18.053Z,99.90
2023-02-17T14:49:45.774Z,99.90
2023-02-17T14:52:20.177Z,99.90
2023-02-17T14:54:48.868Z,99.90
2023-02-17T14:57:17.690Z,99.90
2023-02-17T14:59:46.830Z,99.90
2023-02-17T15:02:16.283Z,99.90
2023-02-17T15:04:44.277Z,99.90
2023-02-17T15:07:14.996Z,99.90
2023-02-17T15:09:44.723Z,99.90
2023-02-17T15:12:17.012Z,99.90
2023-02-17T15:14:46.798Z,99.90
2023-02-17T15:17:14.614Z,99.90
2023-02-17T15:19:44.676Z,99.90
2023-02-17T15:22:13.652Z,99.90
2023-02-17T15:24:41.906Z,99.90
2023-02-17T15:27:18.338Z,99.90
2023-02-17T15:29:48.048Z,99.90
2023-02-17T15:32:19.399Z,99.90
2023-02-17T15:34:47.374Z,99.90
2023-02-17T15:37:15.085Z,99.90
2023-02-17T15:39:42.760Z,99.90
2023-02-17T15:42:14.267Z,99.90
2023-02-17T15:44:45.223Z,99.90
2023-02-17T15:47:17.001Z,99.90
2023-02-17T15:49:45.819Z,99.90
2023-02-17T15:52:14.688Z,99.90
2023-02-17T15:54:43.582Z,99.90
2023-02-17T15:57:20.793Z,99.90
2023-02-17T15:59:48.806Z,99.90
2023-02-17T16:02:21.866Z,99.90
2023-02-17T16:04:50.073Z,99.90
2023-02-17T16:07:18.031Z,99.90
2023-02-17T16:09:45.961Z,99.90
2023-02-17T16:12:18.878Z,99.90
2023-02-17T16:14:46.825Z,99.90
2023-02-17T16:17:16.765Z,99.90
2023-02-17T16:19:46.022Z,99.90
2023-02-17T16:22:14.256Z,99.90
2023-02-17T16:24:42.029Z,99.90
2023-02-17T16:27:12.830Z,99.90
2023-02-17T16:29:41.252Z,99.90
2023-02-17T16:32:11.260Z,99.90
2023-02-17T16:34:39.140Z,99.90
2023-02-17T16:37:15.855Z,99.90
2023-02-17T16:39:44.650Z,99.90
2023-02-17T16:42:14.816Z,99.90
2023-02-17T16:44:42.931Z,99.90
2023-02-17T16:47:20.284Z,99.90
2023-02-17T16:49:50.206Z,99.90
2023-02-17T16:52:26.135Z,99.90
2023-02-17T16:54:54.148Z,99.90
2023-02-17T16:57:22.441Z,99.90
2023-02-17T16:59:50.337Z,99.90
2023-02-17T17:02:19.818Z,99.90
2023-02-17T17:04:48.635Z,99.90
2023-02-17T17:07:16.343Z,99.90
2023-02-17T17:10:00.833Z,99.90
2023-02-17T17:12:33.182Z,99.90
2023-02-17T17:15:01.241Z,99.90
2023-02-17T17:17:29.824Z,99.90
2023-02-17T17:19:57.770Z,99.90
2023-02-17T17:22:25.882Z,99.90
2023-02-17T17:24:55.264Z,99.90
2023-02-17T17:27:23.275Z,99.90
2023-02-17T17:29:51.641Z,99.90
2023-02-17T17:32:19.473Z,99.90
2023-02-17T17:34:47.388Z,99.90
2023-02-17T17:37:15.358Z,99.90
2023-02-17T17:39:43.229Z,99.90
2023-02-17T17:42:13.000Z,99.90
2023-02-17T17:44:40.723Z,99.90
2023-02-17T17:47:21.316Z,99.90
2023-02-17T17:49:56.141Z,99.90
2023-02-17T17:52:24.173Z,99.90
2023-02-17T17:54:52.191Z,99.90
2023-02-17T17:57:22.489Z,99.90
2023-02-17T17:59:50.728Z,99.90
2023-02-17T18:02:18.678Z,99.90
2023-02-17T18:04:46.597Z,99.90
2023-02-17T18:07:14.598Z,99.90
2023-02-17T18:09:43.303Z,99.90
2023-02-17T18:12:13.330Z,99.90
2023-02-17T18:14:45.309Z,99.90
2023-02-17T18:17:15.226Z,99.90
2023-02-17T18:19:43.438Z,99.90
2023-02-17T18:22:11.309Z,99.90
2023-02-17T18:24:39.758Z,99.90
2023-02-17T18:27:07.687Z,99.90
2023-02-17T18:29:35.532Z,99.90
2023-02-17T18:32:04.954Z,99.90
2023-02-17T18:34:32.905Z,99.90
2023-02-17T18:37:00.797Z,99.90
2023-02-17T18:39:28.799Z,99.90
2023-02-17T18:41:56.661Z,99.90
2023-02-17T18:44:24.574Z,99.90
2023-02-17T18:46:52.661Z,99.90
2023-02-17T18:49:21.952Z,99.90
2023-02-17T18:51:49.897Z,99.90
2023-02-17T18:54:17.856Z,99.90
2023-02-17T18:56:45.820Z,99.90
2023-02-17T18:59:13.672Z,99.90
2023-02-17T19:01:43.124Z,99.90
2023-02-17T19:04:11.805Z,99.90
2023-02-17T19:06:41.174Z,99.90
2023-02-17T19:09:09.535Z,99.90
2023-02-17T19:11:37.372Z,99.90
2023-02-17T19:14:05.163Z,99.90
2023-02-17T19:16:33.670Z,99.90
2023-02-17T19:19:02.240Z,99.90
2023-02-17T19:21:30.169Z,99.90
2023-02-17T19:23:59.242Z,99.90
2023-02-17T19:26:27.355Z,99.90
2023-02-17T19:28:55.256Z,99.90
2023-02-17T19:31:24.168Z,99.90
2023-02-17T19:33:51.970Z,99.90
2023-02-17T19:36:22.176Z,99.90
2023-02-17T19:38:51.464Z,99.90
2023-02-17T19:41:20.889Z,99.90
2023-02-17T19:43:49.210Z,99.90
2023-02-17T19:46:19.743Z,99.90
2023-02-17T19:48:47.657Z,99.90
2023-02-17T19:51:15.529Z,99.90
2023-02-17T19:53:44.217Z,99.90
2023-02-17T19:56:14.288Z,99.90
2023-02-17T19:58:45.274Z,99.90
2023-02-17T20:01:15.607Z,99.90
2023-02-17T20:03:44.516Z,99.90
2023-02-17T20:06:16.526Z,99.90
2023-02-17T20:08:45.164Z,99.90
2023-02-17T20:11:13.592Z,99.90
2023-02-17T20:13:46.843Z,99.90
2023-02-17T20:16:16.950Z,99.90
2023-02-17T20:18:46.489Z,99.90
2023-02-17T20:21:15.656Z,99.90
2023-02-17T20:23:43.597Z,99.90
2023-02-17T20:26:13.879Z,99.90
2023-02-17T20:28:43.389Z,99.90
2023-02-17T20:31:11.558Z,99.90
2023-02-17T20:33:39.961Z,99.90
2023-02-17T20:36:09.877Z,99.90
2023-02-17T20:38:38.282Z,99.90
2023-02-17T20:41:06.603Z,99.90
2023-02-17T20:43:34.851Z,99.90
2023-02-17T20:46:04.419Z,99.90
2023-02-17T20:48:32.400Z,99.90
2023-02-17T20:51:00.216Z,99.90
2023-02-17T20:53:29.062Z,99.90
2023-02-17T20:55:56.872Z,99.90
2023-02-17T20:58:24.952Z,99.90
2023-02-17T21:00:52.697Z,99.90
2023-02-17T21:03:21.806Z,99.90
2023-02-17T21:05:49.681Z,99.90
2023-02-17T21:08:17.503Z,99.90
2023-02-17T21:10:45.485Z,99.90
2023-02-17T21:13:13.273Z,99.90
2023-02-17T21:15:41.125Z,99.90
2023-02-17T21:18:09.696Z,99.90
2023-02-17T21:20:38.769Z,99.90
2023-02-17T21:23:06.769Z,99.90
2023-02-17T21:25:34.802Z,99.90
2023-02-17T21:28:02.737Z,99.90
2023-02-17T21:30:30.505Z,99.90
2023-02-17T21:32:58.525Z,99.90
2023-02-17T21:35:26.414Z,99.90
2023-02-17T21:37:55.700Z,99.90
2023-02-17T21:40:23.572Z,99.90
2023-02-17T21:43:08.877Z,99.90
2023-02-17T21:45:38.872Z,99.90
2023-02-17T21:48:07.106Z,99.90
2023-02-17T21:50:34.907Z,99.90
2023-02-17T21:53:04.098Z,99.90
2023-02-17T21:55:32.752Z,99.90
2023-02-17T21:58:01.258Z,99.90
2023-02-17T22:00:28.992Z,99.90
2023-02-17T22:02:56.788Z,99.90
2023-02-17T22:05:24.647Z,99.90
2023-02-17T22:07:52.615Z,99.90
2023-02-17T22:10:21.761Z,99.90
2023-02-17T22:12:52.028Z,99.90
2023-02-17T22:15:20.597Z,99.90
2023-02-17T22:17:48.342Z,99.90
2023-02-17T22:20:16.473Z,99.90
2023-02-17T22:22:44.225Z,99.90
2023-02-17T22:25:12.282Z,99.90
2023-02-17T22:27:41.586Z,99.90
2023-02-17T22:30:10.332Z,99.90
2023-02-17T22:32:38.529Z,99.90
2023-02-17T22:35:06.818Z,99.90
2023-02-17T22:37:34.537Z,99.90
2023-02-17T22:40:04.020Z,99.90
2023-02-17T22:42:31.782Z,99.90
2023-02-17T22:45:01.004Z,99.90
2023-02-17T22:47:28.837Z,99.90
2023-02-17T22:49:56.769Z,99.90
2023-02-17T22:52:24.573Z,99.90
2023-02-17T22:54:52.416Z,99.90
2023-02-17T22:57:20.138Z,99.90
2023-02-17T22:59:48.166Z,99.90
2023-02-17T23:02:17.328Z,99.90
2023-02-17T23:04:45.495Z,99.90
2023-02-17T23:07:13.273Z,99.90
2023-02-17T23:09:40.992Z,99.90
2023-02-17T23:12:08.818Z,99.90
2023-02-17T23:14:37.863Z,99.90
2023-02-17T23:17:07.424Z,99.90
2023-02-17T23:19:37.498Z,99.90
2023-02-17T23:22:08.170Z,99.90
2023-02-17T23:24:36.732Z,99.90
2023-02-17T23:27:05.220Z,99.90
2023-02-17T23:29:33.524Z,99.90
2023-02-17T23:32:01.365Z,99.90
2023-02-17T23:34:29.293Z,99.90
2023-02-17T23:36:58.649Z,99.90
2023-02-17T23:39:26.504Z,99.90
2023-02-17T23:41:54.299Z,99.90
2023-02-17T23:44:22.018Z,99.90
2023-02-17T23:46:49.789Z,99.90
2023-02-17T23:49:18.096Z,99.90
2023-02-17T23:51:47.056Z,99.90
2023-02-17T23:54:16.588Z,99.90
2023-02-17T23:56:44.666Z,99.90
2023-02-17T23:59:12.638Z,99.90
